createdAt,value
2022-07-28T00:01:40.163Z,23.30
2022-07-28T00:04:08.755Z,23.30
2022-07-28T00:06:36.850Z,23.30
2022-07-28T00:09:06.756Z,23.20
2022-07-28T00:11:34.834Z,23.20
2022-07-28T00:14:18.971Z,23.10
2022-07-28T00:16:47.163Z,23.10
2022-07-28T00:19:15.304Z,23.00
2022-07-28T00:21:44.012Z,23.00
2022-07-28T00:24:13.799Z,23.00
2022-07-28T00:26:42.561Z,22.90
2022-07-28T00:29:11.044Z,22.90
2022-07-28T00:31:39.582Z,22.90
2022-07-28T00:34:08.068Z,22.90
2022-07-28T00:36:36.643Z,22.80
2022-07-28T00:39:07.542Z,22.80
2022-07-28T00:41:37.522Z,22.80
2022-07-28T00:44:08.822Z,22.80
2022-07-28T00:46:37.366Z,22.70
2022-07-28T00:49:06.350Z,22.70
2022-07-28T00:51:34.697Z,22.70
2022-07-28T00:54:03.932Z,22.70
2022-07-28T00:56:33.228Z,22.70
2022-07-28T00:59:04.451Z,22.70
2022-07-28T01:01:32.600Z,22.70
2022-07-28T01:04:03.885Z,22.60
2022-07-28T01:06:50.229Z,22.60
2022-07-28T01:09:39.044Z,22.60
2022-07-28T01:12:16.044Z,22.60
2022-07-28T01:14:51.035Z,22.50
2022-07-28T01:17:26.870Z,22.50
2022-07-28T01:20:06.643Z,22.40
2022-07-28T01:22:38.908Z,22.40
2022-07-28T01:25:21.537Z,22.40
2022-07-28T01:28:10.019Z,22.40
2022-07-28T01:30:42.645Z,22.30
2022-07-28T01:33:23.223Z,22.30
2022-07-28T01:35:58.398Z,22.30
2022-07-28T01:38:28.641Z,22.30
2022-07-28T01:40:57.808Z,22.30
2022-07-28T01:43:30.300Z,22.30
2022-07-28T01:46:01.326Z,22.20
2022-07-28T01:48:31.234Z,22.20
2022-07-28T01:50:59.560Z,22.20
2022-07-28T01:53:29.533Z,22.20
2022-07-28T01:55:59.764Z,22.30
2022-07-28T01:58:29.598Z,22.30
2022-07-28T02:01:00.039Z,22.30
2022-07-28T02:03:31.784Z,22.20
2022-07-28T02:06:03.775Z,22.20
2022-07-28T02:08:33.504Z,22.20
2022-07-28T02:11:19.646Z,22.20
2022-07-28T02:13:50.468Z,22.20
2022-07-28T02:16:24.105Z,22.10
2022-07-28T02:18:55.241Z,22.10
2022-07-28T02:21:25.840Z,22.10
2022-07-28T02:23:55.787Z,22.10
2022-07-28T02:26:29.654Z,22.00
2022-07-28T02:29:01.710Z,22.00
2022-07-28T02:31:34.862Z,22.00
2022-07-28T02:34:11.866Z,22.00
2022-07-28T02:36:45.430Z,21.90
2022-07-28T02:39:23.516Z,21.90
2022-07-28T02:41:58.139Z,21.90
2022-07-28T02:44:31.279Z,21.80
2022-07-28T02:47:02.270Z,21.80
2022-07-28T02:49:33.974Z,21.80
2022-07-28T02:52:03.652Z,21.70
2022-07-28T02:54:33.159Z,21.70
2022-07-28T02:57:02.460Z,21.70
2022-07-28T02:59:30.946Z,21.60
2022-07-28T03:02:01.774Z,21.60
2022-07-28T03:04:47.693Z,21.60
2022-07-28T03:07:16.637Z,21.60
2022-07-28T03:09:46.712Z,21.60
2022-07-28T03:12:15.552Z,21.60
2022-07-28T03:14:44.258Z,21.60
2022-07-28T03:17:13.938Z,21.50
2022-07-28T03:19:42.616Z,21.50
2022-07-28T03:22:11.754Z,21.50
2022-07-28T03:24:44.159Z,21.50
2022-07-28T03:27:19.265Z,21.50
2022-07-28T03:29:52.618Z,21.50
2022-07-28T03:32:24.082Z,21.40
2022-07-28T03:34:52.524Z,21.40
2022-07-28T03:37:27.472Z,21.40
2022-07-28T03:39:59.076Z,21.40
2022-07-28T03:42:28.173Z,21.40
2022-07-28T03:44:56.836Z,21.30
2022-07-28T03:47:26.861Z,21.30
2022-07-28T03:49:54.993Z,21.30
2022-07-28T03:52:23.886Z,21.30
2022-07-28T03:54:54.573Z,21.30
2022-07-28T03:57:24.087Z,21.30
2022-07-28T03:59:52.765Z,21.20
2022-07-28T04:02:20.886Z,21.20
2022-07-28T04:04:50.776Z,21.20
2022-07-28T04:07:18.825Z,21.20
2022-07-28T04:09:47.344Z,21.20
2022-07-28T04:12:15.403Z,21.10
2022-07-28T04:14:43.577Z,21.10
2022-07-28T04:17:12.148Z,21.10
2022-07-28T04:19:40.308Z,21.10
2022-07-28T04:22:09.753Z,21.10
2022-07-28T04:24:38.610Z,21.10
2022-07-28T04:27:07.958Z,21.10
2022-07-28T04:29:36.496Z,21.10
2022-07-28T04:32:04.755Z,21.10
2022-07-28T04:34:33.250Z,21.10
2022-07-28T04:37:01.328Z,21.10
2022-07-28T04:39:31.306Z,21.10
2022-07-28T04:41:59.392Z,21.10
2022-07-28T04:44:27.954Z,21.10
2022-07-28T04:46:55.989Z,21.10
2022-07-28T04:49:24.685Z,21.10
2022-07-28T04:51:53.281Z,21.10
2022-07-28T04:54:26.822Z,21.10
2022-07-28T04:56:56.406Z,21.10
2022-07-28T04:59:24.955Z,21.20
2022-07-28T05:01:54.653Z,21.20
2022-07-28T05:04:23.986Z,21.20
2022-07-28T05:06:52.622Z,21.30
2022-07-28T05:09:20.736Z,21.30
2022-07-28T05:11:49.700Z,21.40
2022-07-28T05:14:19.258Z,21.40
2022-07-28T05:16:50.252Z,21.40
2022-07-28T05:19:19.118Z,21.50
2022-07-28T05:21:47.641Z,21.50
2022-07-28T05:24:16.220Z,21.50
2022-07-28T05:26:45.009Z,21.60
2022-07-28T05:29:13.575Z,21.60
2022-07-28T05:31:43.093Z,21.60
2022-07-28T05:34:11.450Z,21.60
2022-07-28T05:36:40.591Z,21.60
2022-07-28T05:39:08.641Z,21.70
2022-07-28T05:41:37.164Z,21.70
2022-07-28T05:44:05.337Z,21.70
2022-07-28T05:46:33.990Z,21.80
2022-07-28T05:49:04.087Z,21.80
2022-07-28T05:51:34.387Z,21.90
2022-07-28T05:54:05.921Z,21.90
2022-07-28T05:56:34.110Z,22.00
2022-07-28T05:59:02.648Z,22.00
2022-07-28T06:01:36.485Z,22.00
2022-07-28T06:04:27.001Z,22.00
2022-07-28T06:06:55.102Z,22.10
2022-07-28T06:09:23.271Z,22.10
2022-07-28T06:11:51.431Z,22.10
2022-07-28T06:14:19.671Z,22.20
2022-07-28T06:16:51.693Z,22.20
2022-07-28T06:19:21.666Z,22.20
2022-07-28T06:21:52.896Z,22.20
2022-07-28T06:24:20.984Z,22.30
2022-07-28T06:26:49.501Z,22.20
2022-07-28T06:29:18.809Z,22.30
2022-07-28T06:31:46.999Z,22.30
2022-07-28T06:34:15.307Z,22.40
2022-07-28T06:36:45.069Z,22.40
2022-07-28T06:39:13.934Z,22.50
2022-07-28T06:41:44.493Z,22.50
2022-07-28T06:44:13.793Z,22.60
2022-07-28T06:46:42.553Z,22.60
2022-07-28T06:49:10.852Z,22.60
2022-07-28T06:51:39.755Z,22.70
2022-07-28T06:54:11.421Z,22.70
2022-07-28T06:56:39.809Z,22.80
2022-07-28T06:59:07.905Z,22.80
2022-07-28T07:01:36.096Z,22.90
2022-07-28T07:04:04.285Z,22.90
2022-07-28T07:06:32.481Z,23.00
2022-07-28T07:09:00.615Z,23.00
2022-07-28T07:11:30.558Z,23.10
2022-07-28T07:13:58.679Z,23.10
2022-07-28T07:16:27.293Z,23.20
2022-07-28T07:18:56.077Z,23.20
2022-07-28T07:21:24.190Z,23.30
2022-07-28T07:23:54.415Z,23.40
2022-07-28T07:26:22.978Z,23.40
2022-07-28T07:28:52.777Z,23.50
2022-07-28T07:31:21.362Z,23.50
2022-07-28T07:33:49.922Z,23.60
2022-07-28T07:36:18.040Z,23.60
2022-07-28T07:38:47.102Z,23.60
2022-07-28T07:41:15.237Z,23.60
2022-07-28T07:43:47.608Z,23.70
2022-07-28T07:46:18.609Z,23.70
2022-07-28T07:48:46.906Z,23.80
2022-07-28T07:51:15.859Z,23.70
2022-07-28T07:53:44.016Z,23.80
2022-07-28T07:56:12.260Z,23.80
2022-07-28T07:58:40.750Z,23.80
2022-07-28T08:01:09.254Z,23.80
2022-07-28T08:03:43.131Z,23.80
2022-07-28T08:06:11.986Z,23.80
2022-07-28T08:08:45.146Z,23.90
2022-07-28T08:11:16.759Z,23.90
2022-07-28T08:13:44.855Z,23.90
2022-07-28T08:16:13.470Z,23.90
2022-07-28T08:18:44.078Z,23.90
2022-07-28T08:21:13.510Z,23.90
2022-07-28T08:23:41.675Z,24.00
2022-07-28T08:26:10.426Z,24.00
2022-07-28T08:28:38.564Z,24.00
2022-07-28T08:31:06.680Z,24.10
2022-07-28T08:33:35.307Z,24.10
2022-07-28T08:36:23.922Z,24.10
2022-07-28T08:38:52.449Z,24.10
2022-07-28T08:41:24.324Z,24.20
2022-07-28T08:43:54.991Z,24.20
2022-07-28T08:46:24.854Z,24.20
2022-07-28T08:48:53.831Z,24.20
2022-07-28T08:51:24.018Z,24.20
2022-07-28T08:53:52.766Z,24.30
2022-07-28T08:56:22.208Z,24.30
2022-07-28T08:58:50.397Z,24.40
2022-07-28T09:01:20.193Z,24.50
2022-07-28T09:03:48.741Z,24.40
2022-07-28T09:06:17.338Z,24.50
2022-07-28T09:08:47.008Z,24.50
2022-07-28T09:11:15.532Z,24.60
2022-07-28T09:13:44.109Z,24.60
2022-07-28T09:16:14.843Z,24.60
2022-07-28T09:18:43.555Z,24.70
2022-07-28T09:21:14.583Z,24.70
2022-07-28T09:23:49.193Z,24.70
2022-07-28T09:26:18.073Z,24.80
2022-07-28T09:28:51.864Z,24.80
2022-07-28T09:31:21.552Z,24.80
2022-07-28T09:33:58.149Z,24.90
2022-07-28T09:36:26.687Z,24.90
2022-07-28T09:38:57.241Z,24.90
2022-07-28T09:41:25.815Z,25.00
2022-07-28T09:43:55.784Z,25.00
2022-07-28T09:46:25.898Z,25.10
2022-07-28T09:48:58.657Z,25.10
2022-07-28T09:51:28.932Z,25.20
2022-07-28T09:54:09.918Z,25.20
2022-07-28T09:56:38.724Z,25.20
2022-07-28T09:59:08.730Z,25.30
2022-07-28T10:01:52.518Z,25.30
2022-07-28T10:04:32.113Z,25.30
2022-07-28T10:07:09.773Z,25.40
2022-07-28T10:09:40.851Z,25.40
2022-07-28T10:12:16.515Z,25.50
2022-07-28T10:14:46.744Z,25.50
2022-07-28T10:17:29.483Z,25.60
2022-07-28T10:19:59.591Z,25.70
2022-07-28T10:22:30.129Z,25.70
2022-07-28T10:25:02.074Z,25.80
2022-07-28T10:27:31.639Z,25.90
2022-07-28T10:30:01.823Z,25.90
2022-07-28T10:32:31.087Z,26.00
2022-07-28T10:35:04.418Z,26.10
2022-07-28T10:37:38.250Z,26.10
2022-07-28T10:40:11.077Z,26.20
2022-07-28T10:42:40.716Z,26.30
2022-07-28T10:45:12.174Z,26.40
2022-07-28T10:47:40.504Z,26.40
2022-07-28T10:50:09.705Z,26.50
2022-07-28T10:52:50.095Z,26.60
2022-07-28T10:55:34.895Z,26.70
2022-07-28T10:58:11.936Z,26.80
2022-07-28T11:00:55.979Z,26.90
2022-07-28T11:03:40.926Z,27.00
2022-07-28T11:06:28.970Z,27.10
2022-07-28T11:08:58.420Z,27.20
2022-07-28T11:11:46.760Z,27.30
2022-07-28T11:14:34.386Z,27.40
2022-07-28T11:17:23.996Z,27.50
2022-07-28T11:20:24.537Z,27.60
2022-07-28T11:22:47.771Z,27.70
2022-07-28T11:25:20.458Z,27.80
2022-07-28T11:28:06.072Z,27.90
2022-07-28T11:30:54.569Z,28.00
2022-07-28T11:33:25.294Z,28.10
2022-07-28T11:36:00.676Z,28.20
2022-07-28T11:38:30.912Z,28.20
2022-07-28T11:40:59.025Z,28.30
2022-07-28T11:43:40.161Z,28.40
2022-07-28T11:46:39.892Z,28.60
2022-07-28T11:49:26.036Z,28.70
2022-07-28T11:52:17.623Z,28.80
2022-07-28T11:54:56.834Z,28.90
2022-07-28T11:57:27.357Z,29.00
2022-07-28T11:59:59.884Z,29.00
2022-07-28T12:02:31.474Z,29.10
2022-07-28T12:05:12.562Z,29.10
2022-07-28T12:07:47.524Z,29.20
2022-07-28T12:13:16.198Z,29.40
2022-07-28T12:15:52.205Z,29.50
2022-07-28T12:18:20.383Z,29.50
2022-07-28T12:20:55.594Z,29.60
2022-07-28T12:23:34.877Z,29.70
2022-07-28T12:26:12.513Z,29.80
2022-07-28T12:28:51.705Z,29.90
2022-07-28T12:31:25.912Z,30.00
2022-07-28T12:33:54.796Z,30.10
2022-07-28T12:36:24.344Z,30.10
2022-07-28T12:38:54.020Z,30.10
2022-07-28T12:41:22.789Z,30.10
2022-07-28T12:43:52.305Z,30.10
2022-07-28T12:46:28.440Z,30.10
2022-07-28T12:48:57.786Z,30.10
2022-07-28T12:51:34.246Z,30.20
2022-07-28T12:54:02.778Z,30.20
2022-07-28T12:56:31.531Z,30.20
2022-07-28T12:59:07.237Z,30.20
2022-07-28T13:01:54.227Z,30.20
2022-07-28T13:04:41.740Z,30.20
2022-07-28T13:07:13.326Z,30.30
2022-07-28T13:09:48.028Z,30.50
2022-07-28T13:12:22.216Z,30.60
2022-07-28T13:14:53.445Z,30.80
2022-07-28T13:17:24.983Z,30.90
2022-07-28T13:20:07.080Z,31.10
2022-07-28T13:22:35.412Z,31.30
2022-07-28T13:25:04.214Z,31.40
2022-07-28T13:27:34.042Z,31.60
2022-07-28T13:30:03.595Z,31.70
2022-07-28T13:32:34.120Z,31.90
2022-07-28T13:35:04.498Z,32.00
2022-07-28T13:37:33.091Z,32.20
2022-07-28T13:40:01.805Z,32.30
2022-07-28T13:42:30.792Z,32.40
2022-07-28T13:44:58.905Z,32.40
2022-07-28T13:47:35.330Z,32.40
2022-07-28T13:50:09.913Z,32.40
2022-07-28T13:52:39.500Z,32.30
2022-07-28T13:55:10.073Z,32.20
2022-07-28T13:57:38.151Z,32.20
2022-07-28T14:00:12.162Z,32.10
2022-07-28T14:02:44.179Z,32.00
2022-07-28T14:05:14.542Z,32.00
2022-07-28T14:07:48.478Z,31.90
2022-07-28T14:10:17.946Z,31.90
2022-07-28T14:12:46.831Z,31.80
2022-07-28T14:15:15.400Z,31.80
2022-07-28T14:17:45.910Z,31.70
2022-07-28T14:20:16.920Z,31.70
2022-07-28T14:22:46.378Z,31.70
2022-07-28T14:25:19.683Z,31.70
2022-07-28T14:27:50.946Z,31.70
2022-07-28T14:30:20.025Z,31.80
2022-07-28T14:32:48.653Z,31.80
2022-07-28T14:35:18.157Z,31.80
2022-07-28T14:40:39.190Z,31.70
2022-07-28T14:43:08.927Z,31.70
2022-07-28T14:46:00.661Z,31.70
2022-07-28T14:48:25.923Z,31.70
2022-07-28T14:50:57.547Z,31.60
2022-07-28T14:53:27.773Z,31.60
2022-07-28T14:55:56.940Z,31.70
2022-07-28T14:58:26.199Z,31.70
2022-07-28T15:00:54.817Z,31.70
2022-07-28T15:03:23.540Z,31.70
2022-07-28T15:05:51.644Z,31.80
2022-07-28T15:08:25.306Z,31.80
2022-07-28T15:10:58.173Z,31.80
2022-07-28T15:13:26.359Z,31.90
2022-07-28T15:15:54.492Z,31.90
2022-07-28T15:18:23.038Z,31.90
2022-07-28T15:20:52.798Z,31.90
2022-07-28T15:23:23.450Z,32.00
2022-07-28T15:25:53.218Z,32.00
2022-07-28T15:28:22.537Z,32.00
2022-07-28T15:30:52.970Z,32.00
2022-07-28T15:33:21.775Z,32.00
2022-07-28T15:35:58.633Z,32.00
2022-07-28T15:38:31.940Z,31.90
2022-07-28T15:41:00.810Z,31.90
2022-07-28T15:43:29.250Z,31.80
2022-07-28T15:45:58.075Z,31.80
2022-07-28T15:48:26.875Z,31.80
2022-07-28T15:50:55.459Z,31.80
2022-07-28T15:53:24.078Z,31.80
2022-07-28T15:55:53.688Z,31.70
2022-07-28T15:58:23.173Z,31.70
2022-07-28T16:00:51.571Z,31.70
2022-07-28T16:03:19.988Z,31.60
2022-07-28T16:05:49.956Z,31.70
2022-07-28T16:08:22.497Z,31.60
2022-07-28T16:10:54.692Z,31.60
2022-07-28T16:13:31.296Z,31.60
2022-07-28T16:16:06.288Z,31.60
2022-07-28T16:18:34.556Z,31.60
2022-07-28T16:21:02.765Z,31.70
2022-07-28T16:23:31.094Z,31.70
2022-07-28T16:26:08.240Z,31.90
2022-07-28T16:28:37.018Z,32.20
2022-07-28T16:31:05.626Z,32.40
2022-07-28T16:33:34.281Z,32.70
2022-07-28T16:36:02.719Z,32.90
2022-07-28T16:38:30.963Z,33.20
2022-07-28T16:40:59.543Z,33.40
2022-07-28T16:43:29.370Z,33.60
2022-07-28T16:45:58.055Z,33.80
2022-07-28T16:48:26.237Z,33.90
2022-07-28T16:50:55.262Z,34.00
2022-07-28T16:53:23.401Z,34.10
2022-07-28T16:55:51.988Z,34.20
2022-07-28T16:58:22.177Z,34.20
2022-07-28T17:00:52.108Z,34.10
2022-07-28T17:03:21.781Z,34.00
2022-07-28T17:05:50.591Z,33.90
2022-07-28T17:08:19.673Z,33.90
2022-07-28T17:10:48.184Z,33.80
2022-07-28T17:13:16.941Z,33.80
2022-07-28T17:15:45.249Z,33.60
2022-07-28T17:18:14.853Z,33.60
2022-07-28T17:20:46.788Z,33.50
2022-07-28T17:23:15.085Z,33.40
2022-07-28T17:26:04.913Z,33.30
2022-07-28T17:28:31.541Z,33.20
2022-07-28T17:30:59.929Z,33.20
2022-07-28T17:33:29.474Z,33.10
2022-07-28T17:35:59.522Z,33.00
2022-07-28T17:38:33.008Z,32.90
2022-07-28T17:41:04.544Z,32.80
2022-07-28T17:43:33.017Z,32.70
2022-07-28T17:46:01.353Z,32.60
2022-07-28T17:48:32.511Z,32.60
2022-07-28T17:51:00.656Z,32.50
2022-07-28T17:53:29.232Z,32.50
2022-07-28T17:56:00.821Z,32.40
2022-07-28T17:58:32.143Z,32.30
2022-07-28T18:01:10.137Z,32.20
2022-07-28T18:03:57.968Z,32.10
2022-07-28T18:06:29.923Z,32.10
2022-07-28T18:09:02.049Z,32.00
2022-07-28T18:11:34.864Z,31.90
2022-07-28T18:14:05.459Z,31.80
2022-07-28T18:16:34.637Z,31.70
2022-07-28T18:19:05.240Z,31.60
2022-07-28T18:21:34.909Z,31.50
2022-07-28T18:24:04.460Z,31.40
2022-07-28T18:26:32.573Z,31.30
2022-07-28T18:29:01.069Z,31.30
2022-07-28T18:31:29.191Z,31.20
2022-07-28T18:33:57.785Z,31.10
2022-07-28T18:36:27.738Z,31.00
2022-07-28T18:38:55.863Z,30.90
2022-07-28T18:41:24.372Z,30.80
2022-07-28T18:43:52.480Z,30.80
2022-07-28T18:46:21.475Z,30.70
2022-07-28T18:48:57.324Z,30.70
2022-07-28T18:51:27.071Z,30.50
2022-07-28T18:53:55.608Z,30.40
2022-07-28T18:56:23.697Z,30.40
2022-07-28T18:58:54.716Z,30.30
2022-07-28T19:01:23.350Z,30.20
2022-07-28T19:03:52.236Z,30.20
2022-07-28T19:06:21.121Z,30.10
2022-07-28T19:08:50.606Z,30.00
2022-07-28T19:11:20.211Z,30.00
2022-07-28T19:13:48.688Z,29.90
2022-07-28T19:16:16.877Z,29.80
2022-07-28T19:18:45.412Z,29.70
2022-07-28T19:21:15.172Z,29.70
2022-07-28T19:23:43.296Z,29.60
2022-07-28T19:26:13.326Z,29.50
2022-07-28T19:28:42.343Z,29.50
2022-07-28T19:31:11.045Z,29.40
2022-07-28T19:33:43.785Z,29.40
2022-07-28T19:36:13.658Z,29.30
2022-07-28T19:38:42.721Z,29.20
2022-07-28T19:41:12.972Z,29.20
2022-07-28T19:43:41.320Z,29.10
2022-07-28T19:46:10.335Z,29.00
2022-07-28T19:48:39.340Z,29.00
2022-07-28T19:51:07.588Z,28.90
2022-07-28T19:53:37.760Z,28.90
2022-07-28T19:56:08.759Z,28.80
2022-07-28T19:58:38.861Z,28.70
2022-07-28T20:01:07.546Z,28.70
2022-07-28T20:04:02.614Z,28.60
2022-07-28T20:06:24.979Z,28.50
2022-07-28T20:08:54.475Z,28.50
2022-07-28T20:11:22.587Z,28.40
2022-07-28T20:13:52.580Z,28.40
2022-07-28T20:16:21.376Z,28.30
2022-07-28T20:18:49.949Z,28.30
2022-07-28T20:21:19.754Z,28.30
2022-07-28T20:23:47.985Z,28.30
2022-07-28T20:26:17.692Z,28.20
2022-07-28T20:28:53.519Z,28.20
2022-07-28T20:31:22.207Z,28.10
2022-07-28T20:33:50.578Z,28.10
2022-07-28T20:36:19.224Z,28.00
2022-07-28T20:38:47.756Z,28.00
2022-07-28T20:41:16.382Z,28.00
2022-07-28T20:43:45.370Z,27.90
2022-07-28T20:46:16.359Z,27.90
2022-07-28T20:48:45.032Z,27.90
2022-07-28T20:51:13.200Z,27.90
2022-07-28T20:53:41.274Z,27.90
2022-07-28T20:56:09.900Z,27.80
2022-07-28T20:58:38.721Z,27.80
2022-07-28T21:01:06.841Z,27.70
2022-07-28T21:03:36.427Z,27.70
2022-07-28T21:06:04.680Z,27.70
2022-07-28T21:08:36.723Z,27.70
2022-07-28T21:11:06.049Z,27.70
2022-07-28T21:13:34.770Z,27.70
2022-07-28T21:16:02.860Z,27.60
2022-07-28T21:18:30.929Z,27.60
2022-07-28T21:21:00.877Z,27.60
2022-07-28T21:23:29.424Z,27.60
2022-07-28T21:25:57.479Z,27.60
2022-07-28T21:28:43.501Z,27.50
2022-07-28T21:31:12.708Z,27.60
2022-07-28T21:33:41.233Z,27.50
2022-07-28T21:36:11.128Z,27.50
2022-07-28T21:38:39.696Z,27.50
2022-07-28T21:41:08.119Z,27.50
2022-07-28T21:43:36.793Z,27.40
2022-07-28T21:46:05.429Z,27.40
2022-07-28T21:48:33.995Z,27.40
2022-07-28T21:51:02.071Z,27.40
2022-07-28T21:53:31.597Z,27.40
2022-07-28T21:55:59.657Z,27.40
2022-07-28T21:58:27.694Z,27.30
2022-07-28T22:01:00.713Z,27.40
2022-07-28T22:03:30.589Z,27.30
2022-07-28T22:05:59.111Z,27.30
2022-07-28T22:08:32.207Z,27.30
2022-07-28T22:11:00.815Z,27.30
2022-07-28T22:13:29.706Z,27.30
2022-07-28T22:15:57.971Z,27.20
2022-07-28T22:18:26.527Z,27.20
2022-07-28T22:20:54.569Z,27.20
2022-07-28T22:23:29.805Z,27.20
2022-07-28T22:26:00.058Z,27.10
2022-07-28T22:28:29.921Z,27.10
2022-07-28T22:31:09.596Z,27.10
2022-07-28T22:33:38.814Z,27.10
2022-07-28T22:36:08.611Z,27.10
2022-07-28T22:38:37.667Z,27.10
2022-07-28T22:41:07.130Z,27.10
2022-07-28T22:43:35.949Z,27.00
2022-07-28T22:46:04.228Z,27.00
2022-07-28T22:48:33.359Z,27.00
2022-07-28T22:51:01.405Z,27.00
2022-07-28T22:53:29.933Z,27.00
2022-07-28T22:55:58.590Z,27.00
2022-07-28T22:58:28.027Z,27.00
2022-07-28T23:00:56.565Z,26.90
2022-07-28T23:03:24.790Z,26.90
2022-07-28T23:05:58.679Z,26.90
2022-07-28T23:08:27.337Z,26.90
2022-07-28T23:10:56.153Z,26.90
2022-07-28T23:13:24.197Z,26.80
2022-07-28T23:15:53.669Z,26.80
2022-07-28T23:18:21.761Z,26.70
2022-07-28T23:20:50.305Z,26.70
2022-07-28T23:23:18.804Z,26.60
2022-07-28T23:25:47.696Z,26.60
2022-07-28T23:28:15.884Z,26.60
2022-07-28T23:30:45.981Z,26.60
2022-07-28T23:33:55.978Z,26.50
2022-07-28T23:36:05.754Z,26.50
2022-07-28T23:38:34.320Z,26.50
2022-07-28T23:41:02.864Z,26.50
2022-07-28T23:43:31.455Z,26.40
2022-07-28T23:45:59.590Z,26.40
2022-07-28T23:48:29.467Z,26.40
2022-07-28T23:50:57.961Z,26.30
2022-07-28T23:53:26.180Z,26.30
2022-07-28T23:55:54.708Z,26.30
2022-07-28T23:58:22.884Z,26.30
